Time;durP1;ratioP1;P1;durP2;ratioP2;P2;SDS_P1;SDS_P2;PMS_P1;PMS_P2;Temp;Humidity;BMP_temperature;BMP_pressure;BME280_temperature;BME280_humidity;BME280_pressure;Samples;Min_cycle;Max_cycle;Signal;HPM_P1;HPM_P2
2021/11/07 00:00:23;;;;;;;10.32;5.43;;;;;;;6.31;83.78;100492.25;5005974;28;20057;-63
2021/11/07 00:03:14;;;;;;;9.90;5.53;;;;;;;6.23;83.84;100487.44;5008390;28;20523;-65
2021/11/07 00:06:05;;;;;;;9.68;5.32;;;;;;;6.17;84.25;100473.72;4991459;28;20128;-64
2021/11/07 00:08:56;;;;;;;10.82;5.35;;;;;;;6.10;85.01;100455.50;5006607;28;20052;-66
2021/11/07 00:11:42;;;;;;;11.32;5.22;;;;;;;6.10;84.60;100457.31;5006639;28;20054;-65
2021/11/07 00:14:28;;;;;;;10.80;5.80;;;;;;;6.05;84.50;100446.16;5005391;28;20050;-64
2021/11/07 00:17:14;;;;;;;11.23;5.43;;;;;;;6.04;84.71;100452.44;5005214;28;20419;-64
2021/11/07 00:20:05;;;;;;;9.48;5.47;;;;;;;5.99;85.48;100447.44;5002836;28;20057;-63
2021/11/07 00:22:56;;;;;;;9.20;5.65;;;;;;;5.99;84.74;100430.59;5003569;28;20157;-66
2021/11/07 00:25:45;;;;;;;13.00;6.45;;;;;;;5.96;84.84;100434.34;5011203;28;20057;-66
2021/11/07 00:28:35;;;;;;;10.48;5.68;;;;;;;5.90;85.43;100426.75;5002187;28;20063;-64
2021/11/07 00:31:26;;;;;;;11.90;5.88;;;;;;;5.77;86.58;100415.25;5004670;28;20072;-63
2021/11/07 00:34:45;;;;;;;11.90;6.13;;;;;;;5.87;85.00;100405.66;5003455;28;20087;-64
2021/11/07 00:37:33;;;;;;;11.43;5.38;;;;;;;5.89;85.38;100393.06;4998106;28;20095;-66
2021/11/07 00:40:24;;;;;;;13.45;5.25;;;;;;;6.01;84.61;100391.38;5004358;28;20104;-65
2021/11/07 00:43:15;;;;;;;8.65;5.40;;;;;;;6.01;84.95;100386.88;4997754;28;20056;-64
2021/11/07 00:46:09;;;;;;;10.75;5.45;;;;;;;6.00;84.86;100374.53;4998406;28;20052;-64
2021/11/07 00:48:58;;;;;;;11.63;5.47;;;;;;;5.94;84.83;100356.34;4997289;28;20049;-64
2021/11/07 00:51:47;;;;;;;10.98;5.65;;;;;;;5.78;86.24;100353.03;5002472;28;20412;-62
2021/11/07 00:54:42;;;;;;;10.48;5.40;;;;;;;5.86;85.71;100342.69;5008095;28;20224;-63
2021/11/07 00:57:39;;;;;;;9.35;5.72;;;;;;;5.93;85.28;100330.66;5009286;28;20161;-64
2021/11/07 01:00:37;;;;;;;10.82;5.72;;;;;;;5.85;85.52;100327.66;5003618;28;20120;-64
2021/11/07 01:03:24;;;;;;;11.07;4.85;;;;;;;5.85;86.04;100325.00;5003982;28;20566;-65
2021/11/07 01:06:09;;;;;;;13.77;5.57;;;;;;;5.87;85.66;100320.41;5006232;28;20052;-63
2021/11/07 01:08:54;;;;;;;12.63;6.20;;;;;;;5.83;86.27;100314.47;4997664;28;20061;-64
2021/11/07 01:11:39;;;;;;;10.57;5.22;;;;;;;5.83;85.92;100297.63;5006811;28;20057;-63
2021/11/07 01:14:24;;;;;;;9.40;5.68;;;;;;;5.98;85.65;100307.19;4998434;28;20057;-65
2021/11/07 01:17:11;;;;;;;11.23;6.18;;;;;;;5.93;86.09;100308.50;5005368;28;20199;-64
2021/11/07 01:19:57;;;;;;;11.15;5.80;;;;;;;5.96;85.71;100298.47;4999018;28;20060;-64
2021/11/07 01:22:52;;;;;;;10.25;5.43;;;;;;;6.09;85.40;100293.91;5003043;28;20184;-64
2021/11/07 01:25:42;;;;;;;9.75;5.55;;;;;;;6.35;83.80;100291.09;5001878;28;20053;-64
2021/11/07 01:28:29;;;;;;;9.70;5.43;;;;;;;6.23;84.69;100284.88;4998424;28;20049;-64
2021/11/07 01:31:14;;;;;;;10.18;5.35;;;;;;;6.33;84.23;100259.25;5001517;28;20522;-64
2021/11/07 01:34:01;;;;;;;10.70;5.97;;;;;;;6.37;84.38;100265.19;5001450;28;20053;-65
2021/11/07 01:36:49;;;;;;;13.23;6.20;;;;;;;6.31;84.50;100269.19;5001576;28;20072;-65
2021/11/07 01:39:41;;;;;;;11.77;6.53;;;;;;;6.37;83.71;100249.19;5003895;28;20168;-66
2021/11/07 01:42:32;;;;;;;10.43;5.22;;;;;;;6.38;84.16;100234.88;5009919;28;20057;-66
2021/11/07 01:45:24;;;;;;;12.63;5.80;;;;;;;6.38;83.85;100245.56;5004930;28;20540;-64
2021/11/07 01:48:12;;;;;;;12.02;5.68;;;;;;;6.35;83.73;100235.13;5004108;28;20060;-63
2021/11/07 01:51:00;;;;;;;10.70;5.15;;;;;;;6.24;84.81;100224.44;5005858;28;20072;-63
2021/11/07 01:53:46;;;;;;;9.63;4.80;;;;;;;6.38;83.96;100226.88;5002299;28;20064;-62
2021/11/07 01:56:31;;;;;;;8.30;5.05;;;;;;;6.50;83.19;100214.44;5001876;28;20062;-64
2021/11/07 01:59:17;;;;;;;8.48;4.68;;;;;;;6.29;84.60;100203.63;5008649;28;20115;-65
2021/11/07 02:02:02;;;;;;;9.82;5.05;;;;;;;6.39;83.83;100215.25;4999937;28;20048;-65
2021/11/07 02:04:48;;;;;;;13.52;5.53;;;;;;;6.44;83.73;100216.63;5001895;28;20056;-64
2021/11/07 02:07:35;;;;;;;10.02;4.22;;;;;;;6.65;82.84;100187.44;5001061;28;20530;-64
2021/11/07 02:10:20;;;;;;;10.27;5.40;;;;;;;6.64;82.68;100195.56;4998007;28;20189;-64
2021/11/07 02:13:05;;;;;;;8.57;4.93;;;;;;;6.80;81.76;100187.19;4997685;28;20057;-64
2021/11/07 02:15:52;;;;;;;13.50;4.80;;;;;;;6.81;81.95;100200.41;4997222;28;20053;-64
2021/11/07 02:18:37;;;;;;;10.82;4.38;;;;;;;6.81;82.05;100191.56;5003061;28;20139;-64
2021/11/07 02:21:23;;;;;;;7.65;4.30;;;;;;;6.76;82.49;100186.59;5006826;28;20424;-64
2021/11/07 02:24:09;;;;;;;10.23;5.03;;;;;;;6.83;81.53;100173.59;4999493;28;20057;-64
2021/11/07 02:26:57;;;;;;;9.40;4.72;;;;;;;6.88;81.13;100184.78;4999715;28;20053;-64
2021/11/07 02:29:42;;;;;;;9.73;4.75;;;;;;;6.90;81.15;100157.00;5007814;28;20475;-64
2021/11/07 02:32:29;;;;;;;9.57;4.13;;;;;;;6.95;81.01;100153.94;5003999;28;20104;-65
2021/11/07 02:35:14;;;;;;;10.88;4.45;;;;;;;6.94;81.22;100152.25;4998590;28;20053;-65
2021/11/07 02:38:01;;;;;;;8.65;4.53;;;;;;;6.95;80.87;100148.59;5007457;28;20074;-63
2021/11/07 02:40:48;;;;;;;10.65;5.75;;;;;;;7.02;80.34;100140.00;5005718;28;20523;-64
2021/11/07 02:43:39;;;;;;;;;;;;;;;7.02;80.25;100128.47;5003091;28;20072;-64
2021/11/07 02:46:24;;;;;;;10.02;4.18;;;;;;;7.11;80.09;100114.41;5001090;28;19929;-64
2021/11/07 02:49:09;;;;;;;7.82;4.10;;;;;;;7.01;80.77;100126.78;5000533;28;20097;-66
2021/11/07 02:51:55;;;;;;;7.80;3.65;;;;;;;7.06;80.35;100123.72;5002324;28;20065;-65
2021/11/07 02:54:42;;;;;;;8.65;4.72;;;;;;;7.16;79.46;100108.66;5004372;28;20104;-66
2021/11/07 02:57:28;;;;;;;7.60;4.63;;;;;;;7.22;79.31;100118.81;4998103;28;20057;-65
2021/11/07 03:00:16;;;;;;;8.23;4.20;;;;;;;7.27;79.80;100116.66;4996498;28;20060;-64
2021/11/07 03:03:01;;;;;;;9.00;3.60;;;;;;;7.24;79.45;100100.88;4995502;28;20108;-65
2021/11/07 03:05:46;;;;;;;8.87;3.97;;;;;;;7.23;78.83;100094.69;5001031;28;20531;-63
2021/11/07 03:08:32;;;;;;;8.65;4.30;;;;;;;7.20;79.04;100070.91;5007691;28;20088;-62
2021/11/07 03:11:19;;;;;;;6.70;4.43;;;;;;;7.21;79.17;100061.09;5004045;28;20061;-63
2021/11/07 03:14:05;;;;;;;8.63;4.60;;;;;;;7.15;79.45;100059.78;4999047;28;20057;-65
2021/11/07 03:16:50;;;;;;;8.93;4.68;;;;;;;7.37;78.33;100039.31;5004572;28;20049;-64
2021/11/07 03:19:37;;;;;;;8.63;3.63;;;;;;;7.22;79.18;100022.72;5001217;28;20057;-63
2021/11/07 03:22:26;;;;;;;6.32;4.15;;;;;;;7.24;78.00;100031.47;5002163;28;20073;-64
2021/11/07 03:25:11;;;;;;;8.07;3.55;;;;;;;7.27;78.12;100042.75;4999212;28;20056;-64
2021/11/07 03:27:59;;;;;;;9.40;3.95;;;;;;;7.22;79.19;100052.09;4994297;28;20053;-64
2021/11/07 03:30:49;;;;;;;9.02;4.32;;;;;;;7.16;78.72;100040.13;4998109;28;20064;-62
2021/11/07 03:33:39;;;;;;;8.43;4.75;;;;;;;7.25;78.63;100039.38;5003497;28;20073;-61
2021/11/07 03:36:25;;;;;;;6.55;3.70;;;;;;;7.19;77.98;100023.00;5003533;28;20236;-64
2021/11/07 03:39:11;;;;;;;6.40;3.35;;;;;;;7.35;77.78;100015.41;4998607;28;20061;-64
2021/11/07 03:41:56;;;;;;;;;;;;;;;7.31;78.56;100016.63;4999454;28;20413;-66
2021/11/07 03:44:43;;;;;;;8.73;4.22;;;;;;;7.35;79.86;100023.44;5001049;28;20475;-65
2021/11/07 03:47:27;;;;;;;;;;;;;;;7.21;81.10;100011.22;5009831;28;20056;-64
2021/11/07 03:50:12;;;;;;;6.30;3.53;;;;;;;7.09;83.31;100012.22;5007335;28;19928;-64
2021/11/07 03:52:58;;;;;;;7.85;4.07;;;;;;;7.09;81.66;100014.91;5000914;28;20053;-64
2021/11/07 03:55:43;;;;;;;8.40;3.95;;;;;;;7.02;81.80;100013.72;5003399;28;20061;-63
2021/11/07 03:58:28;;;;;;;10.25;4.70;;;;;;;7.01;81.52;99998.69;5008402;28;20096;-65
2021/11/07 04:01:14;;;;;;;13.52;4.00;;;;;;;7.05;80.98;99989.47;5004760;28;20057;-60
2021/11/07 04:04:00;;;;;;;7.28;3.67;;;;;;;7.04;82.21;100001.09;5007956;28;20061;-66
2021/11/07 04:06:45;;;;;;;8.93;3.65;;;;;;;7.22;80.05;99977.34;5007849;28;20185;-61
2021/11/07 04:09:30;;;;;;;8.27;4.50;;;;;;;7.06;81.49;99979.63;5003581;28;20108;-65
2021/11/07 04:12:16;;;;;;;7.90;4.45;;;;;;;7.06;80.62;99969.81;5009013;28;20395;-61
2021/11/07 04:15:01;;;;;;;11.35;5.03;;;;;;;7.07;80.80;99967.97;5003090;28;20061;-66
2021/11/07 04:17:47;;;;;;;6.93;4.20;;;;;;;7.06;80.88;99959.13;5004188;28;20068;-68
2021/11/07 04:20:33;;;;;;;7.82;4.82;;;;;;;7.01;82.27;99967.53;5005748;28;20056;-67
2021/11/07 04:23:18;;;;;;;7.03;3.97;;;;;;;7.04;81.59;99964.59;5001376;28;20064;-67
2021/11/07 04:26:04;;;;;;;6.65;3.55;;;;;;;6.96;82.90;99966.19;5000686;28;20061;-67
2021/11/07 04:28:49;;;;;;;8.75;4.03;;;;;;;7.04;81.11;99955.75;5008163;28;20060;-67
2021/11/07 04:31:34;;;;;;;6.93;3.83;;;;;;;7.10;80.66;99954.38;5001115;28;20473;-67
2021/11/07 04:34:21;;;;;;;8.20;4.43;;;;;;;7.07;81.14;99939.47;5007114;28;20511;-67
2021/11/07 04:37:06;;;;;;;10.30;4.28;;;;;;;7.01;80.94;99948.00;5007833;28;20056;-64
2021/11/07 04:39:51;;;;;;;9.27;4.10;;;;;;;7.17;80.00;99955.56;5003316;28;20192;-68
2021/11/07 04:42:40;;;;;;;6.82;3.65;;;;;;;7.26;79.38;99939.63;4999689;28;20320;-65
2021/11/07 04:45:25;;;;;;;8.07;4.30;;;;;;;7.19;79.93;99938.44;4998575;28;20060;-64
2021/11/07 04:48:10;;;;;;;8.43;4.67;;;;;;;7.22;80.43;99932.84;5002084;28;20045;-63
2021/11/07 04:50:57;;;;;;;8.43;4.53;;;;;;;7.17;80.14;99924.38;4999587;28;20057;-62
2021/11/07 04:53:43;;;;;;;7.25;4.60;;;;;;;7.27;79.86;99925.28;5003777;28;20119;-63
2021/11/07 04:56:28;;;;;;;10.45;5.10;;;;;;;7.13;81.09;99906.94;5002570;28;20064;-65
2021/11/07 04:59:13;;;;;;;9.37;5.37;;;;;;;7.05;81.19;99904.06;5004105;28;20331;-63
2021/11/07 05:01:58;;;;;;;15.02;4.63;;;;;;;7.07;81.09;99902.09;5005409;28;20078;-65
2021/11/07 05:04:43;;;;;;;7.10;4.13;;;;;;;7.08;80.80;99898.47;5004096;28;20160;-63
2021/11/07 05:07:30;;;;;;;8.57;4.88;;;;;;;7.08;80.52;99900.28;4999270;28;20511;-62
2021/11/07 05:10:15;;;;;;;8.48;4.03;;;;;;;7.14;81.50;99892.63;4993594;28;20542;-61
2021/11/07 05:13:00;;;;;;;9.18;4.43;;;;;;;7.17;81.51;99903.03;4998608;28;20421;-65
2021/11/07 05:18:23;;;;;;;9.27;4.53;;;;;;;7.15;81.08;99915.66;5026170;28;20068;-65
2021/11/07 05:21:08;;;;;;;9.20;4.28;;;;;;;7.22;80.17;99895.50;5026367;28;20065;-63
2021/11/07 05:23:55;;;;;;;10.30;4.53;;;;;;;7.15;80.99;99899.66;5026071;28;20115;-62
2021/11/07 05:26:40;;;;;;;7.28;4.25;;;;;;;7.15;81.00;99898.81;5026940;28;20526;-62
2021/11/07 05:29:25;;;;;;;9.68;4.55;;;;;;;7.18;80.32;99882.50;5022603;28;20538;-62
2021/11/07 05:32:10;;;;;;;9.70;4.00;;;;;;;7.23;80.75;99880.31;5028007;28;20521;-64
2021/11/07 05:34:56;;;;;;;8.13;4.90;;;;;;;7.14;81.30;99875.75;5026988;28;20056;-62
2021/11/07 05:37:41;;;;;;;12.80;4.85;;;;;;;7.16;81.36;99868.47;5028010;28;20525;-62
2021/11/07 05:40:27;;;;;;;8.48;4.88;;;;;;;7.10;82.42;99861.81;5025019;28;20180;-61
2021/11/07 05:43:13;;;;;;;8.23;4.50;;;;;;;7.02;83.49;99858.97;5028041;28;20415;-62
2021/11/07 05:45:58;;;;;;;8.53;4.57;;;;;;;7.06;82.73;99857.72;5022122;28;20072;-63
2021/11/07 05:48:43;;;;;;;10.80;4.97;;;;;;;6.98;82.93;99868.19;5023956;28;20076;-62
2021/11/07 05:51:28;;;;;;;8.25;4.63;;;;;;;6.95;83.28;99874.63;5027678;28;20060;-61
2021/11/07 05:54:14;;;;;;;9.10;5.00;;;;;;;7.00;83.12;99867.13;5026228;28;20119;-63
2021/11/07 05:57:02;;;;;;;15.77;5.60;;;;;;;7.02;83.32;99872.31;5024846;28;20437;-63
2021/11/07 05:59:47;;;;;;;10.60;5.22;;;;;;;6.95;84.14;99873.81;5024392;28;20613;-64
2021/11/07 06:02:32;;;;;;;11.50;5.45;;;;;;;6.95;83.76;99865.78;5025860;28;20068;-60
2021/11/07 06:05:19;;;;;;;10.68;5.13;;;;;;;6.88;84.93;99865.50;5019088;28;20107;-63
2021/11/07 06:08:05;;;;;;;12.43;5.22;;;;;;;6.87;84.95;99863.78;5024279;28;20192;-61
2021/11/07 06:10:50;;;;;;;10.30;4.70;;;;;;;6.83;85.24;99864.16;5028258;28;20419;-63
2021/11/07 06:13:37;;;;;;;12.60;4.80;;;;;;;6.98;84.11;99860.19;5027358;28;20557;-63
2021/11/07 06:16:23;;;;;;;10.07;5.13;;;;;;;6.86;84.88;99851.41;5024119;28;20045;-61
2021/11/07 06:19:08;;;;;;;11.63;5.22;;;;;;;7.09;82.96;99838.78;5021683;28;20099;-63
2021/11/07 06:21:53;;;;;;;9.02;4.28;;;;;;;7.00;84.13;99855.59;5027576;28;20056;-62
2021/11/07 06:24:39;;;;;;;9.27;5.40;;;;;;;6.98;83.66;99846.84;5023752;28;20064;-64
2021/11/07 06:27:27;;;;;;;8.48;4.95;;;;;;;6.90;84.28;99850.19;5026083;28;20048;-61
2021/11/07 06:30:14;;;;;;;9.25;5.43;;;;;;;6.97;83.84;99824.66;5024414;28;20163;-63
2021/11/07 06:32:59;;;;;;;8.10;5.53;;;;;;;7.02;83.75;99848.31;5025611;28;20072;-63
2021/11/07 06:35:44;;;;;;;9.02;4.40;;;;;;;7.00;84.35;99843.09;5021625;28;20060;-63
2021/11/07 06:38:30;;;;;;;10.27;5.05;;;;;;;6.96;84.45;99846.13;5020029;28;20111;-63
2021/11/07 06:41:15;;;;;;;7.35;4.28;;;;;;;7.07;84.22;99837.22;5026592;28;20056;-63
2021/11/07 06:44:01;;;;;;;11.53;5.33;;;;;;;6.95;84.47;99839.97;5025074;28;20052;-64
2021/11/07 06:46:47;;;;;;;8.40;4.93;;;;;;;7.08;84.24;99833.56;5024024;28;20871;-63
2021/11/07 06:49:32;;;;;;;9.02;5.15;;;;;;;7.08;84.21;99838.91;5024802;28;20454;-62
2021/11/07 06:52:18;;;;;;;10.82;4.65;;;;;;;7.01;84.45;99844.78;5025030;28;20060;-63
2021/11/07 06:55:04;;;;;;;8.00;4.85;;;;;;;7.02;85.03;99835.81;5025386;28;20052;-62
2021/11/07 06:57:49;;;;;;;7.15;4.15;;;;;;;7.08;84.92;99826.41;5025324;28;20048;-61
2021/11/07 07:00:35;;;;;;;7.93;4.60;;;;;;;7.07;84.67;99831.88;5024888;28;20056;-62
2021/11/07 07:03:21;;;;;;;9.15;4.47;;;;;;;7.10;85.11;99843.13;5025011;28;20060;-61
2021/11/07 07:06:07;;;;;;;;;;;;;;;7.06;85.02;99833.72;5023840;28;20057;-62
2021/11/07 07:08:55;;;;;;;8.18;4.22;;;;;;;7.04;85.19;99843.66;5024999;28;19927;-67
2021/11/07 07:11:43;;;;;;;8.80;4.63;;;;;;;7.03;85.47;99847.31;5024222;28;20549;-64
2021/11/07 07:14:32;;;;;;;9.25;5.10;;;;;;;7.23;84.54;99845.63;5024544;28;20061;-63
2021/11/07 07:17:28;;;;;;;8.23;4.20;;;;;;;7.15;85.75;99840.94;5023122;28;20061;-62
2021/11/07 07:20:26;;;;;;;11.18;4.70;;;;;;;7.02;86.04;99845.63;5031915;28;20052;-63
2021/11/07 07:23:34;;;;;;;8.18;4.55;;;;;;;7.13;85.10;99834.03;5031197;28;20057;-62
2021/11/07 07:26:38;;;;;;;10.35;4.93;;;;;;;7.09;85.62;99824.59;5026152;28;20056;-64
2021/11/07 07:32:52;;;;;;;8.30;4.15;;;;;;;7.26;84.32;99826.66;4991975;28;20056;-63
2021/11/07 07:35:38;;;;;;;7.85;4.00;;;;;;;7.48;82.91;99822.97;5027118;28;20542;-63
2021/11/07 07:38:24;;;;;;;10.60;4.00;;;;;;;7.42;83.93;99831.50;5026822;28;20061;-63
2021/11/07 07:41:09;;;;;;;8.15;3.35;;;;;;;7.44;83.17;99819.69;5027409;28;20695;-64
2021/11/07 07:43:54;;;;;;;7.75;3.85;;;;;;;7.46;82.26;99816.88;5025679;28;20056;-63
2021/11/07 07:46:42;;;;;;;6.77;3.50;;;;;;;7.45;82.67;99823.22;5026311;28;20061;-64
2021/11/07 07:49:29;;;;;;;8.00;4.10;;;;;;;7.33;83.97;99812.63;5025427;28;20076;-62
2021/11/07 07:52:19;;;;;;;6.55;3.65;;;;;;;7.34;83.31;99813.50;5028941;28;20139;-64
2021/11/07 07:55:05;;;;;;;8.23;4.25;;;;;;;7.57;82.32;99798.09;5030130;28;20415;-63
2021/11/07 07:57:50;;;;;;;6.20;3.95;;;;;;;7.62;82.01;99803.91;5031939;28;20221;-62
2021/11/07 08:00:36;;;;;;;7.90;4.27;;;;;;;7.83;81.78;99822.53;5031848;28;20057;-63
2021/11/07 08:03:21;;;;;;;10.83;4.07;;;;;;;8.02;80.50;99827.03;5034529;28;20056;-64
2021/11/07 08:06:06;;;;;;;9.10;4.20;;;;;;;8.18;80.58;99836.22;5032680;28;20057;-64
2021/11/07 08:08:53;;;;;;;9.82;4.30;;;;;;;8.13;80.83;99827.75;5030109;28;20142;-63
2021/11/07 08:11:39;;;;;;;10.82;4.30;;;;;;;7.91;81.38;99831.50;5032770;28;20056;-64
2021/11/07 08:14:25;;;;;;;9.70;3.78;;;;;;;7.99;81.92;99841.53;5029299;28;20123;-63
2021/11/07 08:17:10;;;;;;;8.07;3.53;;;;;;;8.09;81.64;99833.53;5032004;28;20052;-63
2021/11/07 08:19:55;;;;;;;11.20;4.47;;;;;;;7.75;85.36;99833.88;5028456;28;20330;-62
2021/11/07 08:22:42;;;;;;;7.97;3.97;;;;;;;7.66;86.82;99842.69;5030109;28;20064;-63
2021/11/07 08:25:30;;;;;;;13.23;4.78;;;;;;;7.63;87.18;99833.13;5031038;28;20477;-63
2021/11/07 08:28:18;;;;;;;10.68;4.75;;;;;;;7.37;89.01;99844.41;5032527;28;20048;-62
2021/11/07 08:31:06;;;;;;;10.38;5.07;;;;;;;7.14;89.95;99839.25;5030548;28;20111;-63
2021/11/07 08:33:52;;;;;;;9.25;4.40;;;;;;;7.26;89.51;99843.53;5031134;28;20518;-63
2021/11/07 08:36:41;;;;;;;9.77;4.75;;;;;;;7.29;89.58;99831.72;5032104;28;20053;-63
2021/11/07 08:39:29;;;;;;;9.55;4.68;;;;;;;7.35;89.92;99830.38;5028270;28;20186;-65
2021/11/07 08:42:19;;;;;;;9.07;4.18;;;;;;;7.42;89.17;99828.81;5030754;28;20134;-63
2021/11/07 09:00:42;;;;;;;11.23;4.40;;;;;;;7.64;88.25;99812.63;5029355;28;20069;-65
2021/11/07 09:03:41;;;;;;;11.10;3.53;;;;;;;7.76;87.52;99808.84;5027582;28;20057;-63
2021/11/07 09:06:56;;;;;;;5.97;3.58;;;;;;;7.66;88.09;99797.28;5031394;28;20164;-63
2021/11/07 09:09:42;;;;;;;8.40;4.32;;;;;;;7.53;88.75;99797.53;5028953;28;20270;-61
2021/11/07 09:12:27;;;;;;;;;;;;;;;7.63;88.40;99793.06;5028654;28;20060;-62
2021/11/07 09:15:16;;;;;;;5.75;3.40;;;;;;;7.76;87.98;99795.50;5026249;28;20066;-63
2021/11/07 09:18:02;;;;;;;7.15;3.83;;;;;;;7.81;88.17;99803.09;5016247;28;20545;-63
2021/11/07 09:20:53;;;;;;;5.95;4.07;;;;;;;8.05;87.03;99802.69;5030558;28;20064;-63
2021/11/07 09:23:42;;;;;;;7.28;4.13;;;;;;;8.10;86.77;99784.44;5031698;28;20060;-64
2021/11/07 09:26:34;;;;;;;7.57;3.67;;;;;;;8.08;86.33;99802.44;5025207;28;20060;-63
2021/11/07 09:29:25;;;;;;;7.50;3.60;;;;;;;8.23;86.00;99811.75;5030476;28;20068;-62
2021/11/07 09:32:22;;;;;;;6.97;4.30;;;;;;;7.99;87.35;99808.63;5029694;28;20065;-62
2021/11/07 09:35:25;;;;;;;8.25;3.53;;;;;;;8.03;86.58;99820.72;5029528;28;20126;-63
2021/11/07 09:38:12;;;;;;;7.57;3.50;;;;;;;7.98;86.61;99823.81;5027675;28;20135;-64
2021/11/07 09:41:11;;;;;;;10.05;3.88;;;;;;;7.87;87.38;99822.09;5024484;28;20518;-63
2021/11/07 09:43:59;;;;;;;8.95;4.65;;;;;;;7.72;87.24;99791.41;5025337;28;20063;-62
2021/11/07 09:46:47;;;;;;;10.05;4.45;;;;;;;8.03;86.33;99802.00;5030528;28;20073;-62
2021/11/07 09:49:43;;;;;;;9.40;4.53;;;;;;;8.02;86.76;99808.34;5029338;28;20430;-62
2021/11/07 09:52:35;;;;;;;8.73;4.88;;;;;;;8.04;85.54;99807.22;5029952;28;20052;-64
2021/11/07 09:55:23;;;;;;;7.88;4.68;;;;;;;8.08;86.16;99811.31;5030183;28;20060;-63
2021/11/07 09:58:08;;;;;;;9.60;5.25;;;;;;;8.10;85.66;99805.81;5025528;28;20103;-62
2021/11/07 10:00:55;;;;;;;10.93;4.47;;;;;;;8.08;85.29;99797.09;5028474;28;20127;-64
2021/11/07 10:03:43;;;;;;;10.32;5.07;;;;;;;7.95;86.28;99801.88;5029434;28;20060;-64
2021/11/07 10:06:37;;;;;;;12.50;5.45;;;;;;;7.85;87.34;99804.53;5024675;28;20529;-62
2021/11/07 10:09:34;;;;;;;8.57;5.30;;;;;;;7.75;87.14;99809.84;5026106;28;20518;-62
2021/11/07 10:12:23;;;;;;;8.43;5.28;;;;;;;7.78;87.15;99798.88;5025473;28;20064;-64
2021/11/07 10:15:12;;;;;;;10.40;4.82;;;;;;;7.82;86.79;99802.13;5029416;28;20832;-63
2021/11/07 10:18:03;;;;;;;9.85;4.95;;;;;;;7.88;87.01;99797.06;5029413;28;20059;-63
2021/11/07 10:20:51;;;;;;;8.82;4.30;;;;;;;8.00;86.51;99799.63;5029838;28;20071;-62
2021/11/07 10:23:41;;;;;;;12.27;5.53;;;;;;;7.94;86.09;99786.81;5029655;28;20439;-60
2021/11/07 10:26:34;;;;;;;8.40;5.03;;;;;;;7.83;86.63;99783.28;5029138;28;20090;-63
2021/11/07 10:29:41;;;;;;;10.98;5.32;;;;;;;7.74;87.20;99793.94;5024144;28;20199;-65
2021/11/07 10:32:31;;;;;;;7.43;4.53;;;;;;;7.71;87.64;99789.72;5029928;28;20048;-64
2021/11/07 10:35:38;;;;;;;10.73;5.32;;;;;;;7.73;87.27;99782.41;5029136;28;20064;-64
2021/11/07 10:54:17;;;;;;;7.03;3.70;;;;;;;7.65;88.67;99787.59;5026548;28;20072;-63
2021/11/07 10:57:19;;;;;;;10.68;3.60;;;;;;;7.76;87.91;99776.78;5027134;28;20391;-62
2021/11/07 11:00:21;;;;;;;7.22;3.78;;;;;;;7.78;87.34;99780.16;5028506;28;20526;-63
2021/11/07 11:03:09;;;;;;;6.30;3.42;;;;;;;7.67;88.53;99776.75;5024884;28;20060;-64
2021/11/07 11:06:04;;;;;;;8.15;3.42;;;;;;;7.82;88.74;99775.41;5024432;28;20052;-63
2021/11/07 11:08:54;;;;;;;6.43;2.90;;;;;;;8.01;88.02;99785.28;5030646;28;20524;-63
2021/11/07 11:11:42;;;;;;;7.43;2.90;;;;;;;7.90;88.51;99770.19;5030102;28;20056;-62
2021/11/07 11:14:32;;;;;;;4.65;2.42;;;;;;;8.02;88.49;99765.56;5016313;28;20063;-63
2021/11/07 11:17:26;;;;;;;5.15;3.08;;;;;;;8.15;85.88;99782.19;5020784;22;20061;-76
2021/11/07 11:20:20;;;;;;;4.57;2.50;;;;;;;8.30;86.73;99769.25;5022555;28;20092;-78
2021/11/07 11:23:10;;;;;;;4.40;2.17;;;;;;;8.25;86.09;99760.81;5029472;28;20055;-78
2021/11/07 11:26:17;;;;;;;6.45;2.72;;;;;;;8.44;84.82;99769.69;5036293;28;20064;-77
2021/11/07 11:29:10;;;;;;;4.28;2.20;;;;;;;8.42;84.61;99766.34;5003917;28;20068;-77
2021/11/07 11:32:01;;;;;;;4.70;2.17;;;;;;;8.29;85.21;99763.06;5014233;28;20361;-77
2021/11/07 11:34:53;;;;;;;6.32;2.58;;;;;;;8.19;85.57;99752.38;5015012;28;20068;-78
2021/11/07 11:37:47;;;;;;;3.47;1.75;;;;;;;8.47;84.18;99753.38;5016026;28;20053;-77
2021/11/07 11:40:39;;;;;;;2.65;1.67;;;;;;;8.69;82.82;99744.19;5012124;28;20085;-77
2021/11/07 11:43:31;;;;;;;3.22;1.80;;;;;;;8.79;81.70;99744.16;5015018;28;20507;-79
2021/11/07 11:46:33;;;;;;;3.35;2.05;;;;;;;8.88;81.04;99740.63;5014525;28;20053;-78
2021/11/07 11:49:55;;;;;;;5.57;1.80;;;;;;;8.92;80.16;99731.31;5008183;28;20053;-77
2021/11/07 11:52:50;;;;;;;3.53;1.52;;;;;;;9.26;79.21;99725.41;5005671;28;20336;-79
2021/11/07 11:55:40;;;;;;;3.10;1.77;;;;;;;9.29;77.79;99727.78;5014173;28;20057;-79
2021/11/07 11:58:41;;;;;;;5.32;1.70;;;;;;;9.31;77.33;99717.75;5013848;28;20052;-78
2021/11/07 12:01:30;;;;;;;2.13;0.95;;;;;;;9.35;76.59;99717.31;5010474;28;20061;-79
2021/11/07 12:04:19;;;;;;;5.38;1.40;;;;;;;9.24;77.97;99717.50;5011131;28;20048;-77
2021/11/07 12:07:21;;;;;;;4.60;1.45;;;;;;;9.27;77.18;99729.75;5015321;28;20052;-78
2021/11/07 12:10:26;;;;;;;4.07;1.25;;;;;;;9.06;79.26;99729.97;5007606;28;20656;-78
2021/11/07 12:13:27;;;;;;;2.10;1.10;;;;;;;8.88;79.46;99732.59;5014814;28;20050;-77
2021/11/07 12:16:17;;;;;;;3.88;1.60;;;;;;;8.84;79.75;99712.44;5011742;28;20104;-77
2021/11/07 12:19:05;;;;;;;3.67;1.30;;;;;;;8.67;81.75;99713.22;5011947;28;20077;-78
2021/11/07 12:22:05;;;;;;;3.47;1.20;;;;;;;8.46;83.60;99711.56;5015880;28;20097;-78
2021/11/07 12:25:13;;;;;;;3.20;2.03;;;;;;;8.27;86.57;99714.22;5016682;28;20410;-76
2021/11/07 12:27:58;;;;;;;3.97;1.55;;;;;;;8.21;90.14;99729.00;5015427;28;20100;-74
2021/11/07 12:30:45;;;;;;;8.02;1.90;;;;;;;8.13;92.26;99752.06;5018258;28;20069;-78
2021/11/07 12:33:48;;;;;;;2.70;1.50;;;;;;;7.83;93.34;99734.34;5019363;28;20184;-78
2021/11/07 12:40:27;;;;;;;2.80;1.40;;;;;;;7.69;94.85;99742.75;5018439;28;20585;-78
2021/11/07 12:43:03;;;;;;;6.03;1.92;;;;;;;7.90;94.01;99728.28;5018786;28;20053;-78
2021/11/07 12:45:52;;;;;;;3.13;1.65;;;;;;;7.75;95.99;99747.56;5013556;28;20065;-76
2021/11/07 12:48:43;;;;;;;3.78;1.85;;;;;;;7.73;95.70;99739.69;5011700;28;20056;-79
2021/11/07 12:51:36;;;;;;;5.90;2.08;;;;;;;7.68;96.86;99725.03;5016838;28;20062;-78
2021/11/07 12:54:29;;;;;;;5.25;2.38;;;;;;;7.56;98.92;99725.16;5018552;28;20061;-75
2021/11/07 12:57:16;;;;;;;5.78;2.65;;;;;;;7.56;99.26;99717.13;5019485;28;20188;-79
2021/11/07 13:00:06;;;;;;;5.18;2.35;;;;;;;7.63;98.67;99728.13;5014605;28;20072;-78
2021/11/07 13:02:51;;;;;;;6.72;2.22;;;;;;;7.91;95.73;99719.28;5014438;28;20138;-76
2021/11/07 13:05:38;;;;;;;11.57;3.22;;;;;;;7.84;95.94;99728.03;5018647;28;20100;-78
2021/11/07 13:08:31;;;;;;;10.60;2.30;;;;;;;7.86;96.31;99729.56;5007873;28;20053;-77
2021/11/07 13:11:21;;;;;;;12.23;2.83;;;;;;;7.75;96.45;99732.38;5011087;28;20591;-78
2021/11/07 13:14:14;;;;;;;10.43;2.65;;;;;;;7.63;97.60;99733.47;5013296;28;20119;-76
2021/11/07 13:17:32;;;;;;;10.45;2.83;;;;;;;7.72;97.17;99732.66;5015120;28;20503;-78
2021/11/07 13:20:46;;;;;;;4.68;2.40;;;;;;;7.82;96.25;99733.50;5014505;28;20108;-77
2021/11/07 13:26:53;;;;;;;15.90;2.45;;;;;;;7.79;95.73;99730.25;4996371;28;20060;-78
2021/11/07 13:29:48;;;;;;;13.48;3.20;;;;;;;7.43;95.28;99742.41;5013982;28;20072;-78
2021/11/07 13:32:38;;;;;;;14.52;2.47;;;;;;;7.31;91.93;99728.31;5015540;28;20538;-77
2021/11/07 13:35:24;;;;;;;7.80;2.25;;;;;;;7.26;92.64;99728.75;5008091;28;20617;-79
2021/11/07 13:38:15;;;;;;;13.27;3.00;;;;;;;7.25;92.43;99723.53;5016645;28;20056;-76
2021/11/07 13:41:01;;;;;;;9.80;1.88;;;;;;;7.19;92.00;99724.91;5014866;28;20056;-80
2021/11/07 13:43:51;;;;;;;8.02;1.75;;;;;;;7.39;89.05;99712.47;5015763;28;20140;-76
2021/11/07 13:46:37;;;;;;;11.55;2.05;;;;;;;7.37;87.70;99718.94;5011056;28;20060;-77
2021/11/07 13:49:24;;;;;;;12.30;2.70;;;;;;;7.54;86.99;99719.09;5016120;28;20053;-77
2021/11/07 13:52:09;;;;;;;11.57;2.50;;;;;;;7.31;89.35;99720.31;5015801;28;20428;-77
2021/11/07 13:54:55;;;;;;;11.20;2.17;;;;;;;7.26;89.42;99719.88;5012250;28;20526;-76
2021/11/07 13:57:41;;;;;;;17.30;2.58;;;;;;;7.28;87.83;99716.09;5014503;28;20096;-75
2021/11/07 14:00:27;;;;;;;10.15;1.92;;;;;;;7.26;89.10;99714.56;5015120;28;20836;-78
2021/11/07 14:03:13;;;;;;;10.38;2.33;;;;;;;7.25;89.44;99721.72;5017203;28;20534;-77